Aviation Digital Data Service (ADDS)

Output produced by METARs form (0530 UTC 23 August 2014)
found at http://aviationweather.gov/adds/metars/
 
KJAX 222320Z 2300/2324 15007KT P6SM SCT050 
     FM230200 20004KT P6SM SCT250 
     FM231400 31005KT P6SM SCT035